首页
METAR-TAF:

METAR-TAF

机场 :

Shaw Air Force Base

Sumter, 南卡罗来纳州, 美国

纬度: 33-58N, 经度: 080-29W, 海拔: 74米

当前天气观测

该预报发布于40分钟前的07:56 UTC
静风
温度 9°C
湿度 66%
气压 1015 hPa
能見度: 16.1公里
天空无云

METAR: KSSC 030756Z AUTO 00000KT 10SM CLR 09/03 A2997 RMK AO2 SLP150 T00890031 $

时间: 04:36 (08:36 UTC)

预报

该预报发布于1小时和36分钟前的07:00 UTC
预报有效从03日的 07点(UTC)到 04日的 13点(UTC)
风速6节,风向多变
能见度10公里或以上
天空无云
成为
从 03日的 14点(UTC)到 03日的 15点(UTC)
风速10节,风向,有时为15节阵风
能见度10公里或以上
天空无云
成为
从 03日的 21点(UTC)到 03日的 22点(UTC)
风速9节,风向西北
能见度10公里或以上
天空无云
成为
从 04日的 01点(UTC)到 04日的 02点(UTC)
风速6节,风向多变
能见度10公里或以上
散云层高于12000英尺

TAF: KSSC 030700Z 0307/0413 VRB06KT 9999 SKC QNH2997INS BECMG 0314/0315 35010G15KT 9999 SKC QNH3002INS BECMG 0321/0322 32009KT 9999 SKC QNH2990INS BECMG 0401/0402 VRB06KT 9999 SCT120 QNH2994INS TX21/0321Z TN07/0307Z

超过4000个机场的气象观测和天气预报(METAR&TAF报告)。

可查询的气象台以黄色和红色小点在地图上表示。

将鼠标移到小点上方,可查看气象台名称。

然后点击查看天气观测和预报。

如需切换地图:点击带黑十字的绿色按钮放大地图;点击带横线的绿色按钮缩小地图;或者点击绿色箭头查看邻近地区的地图。


METAR-TAF: